Time;durP1;ratioP1;P1;durP2;ratioP2;P2;SDS_P1;SDS_P2;PMS_P1;PMS_P2;Temp;Humidity;BMP_temperature;BMP_pressure;BME280_temperature;BME280_humidity;BME280_pressure;Samples;Min_cycle;Max_cycle;Signal;HPM_P1;HPM_P2
2022/03/26 00:00:19;;;;;;;102.05;36.30;;;;;;;;;;5084156;23;20036;-89
2022/03/26 00:02:47;;;;;;;104.95;37.47;;;;;;;;;;4917063;29;20138;-90
2022/03/26 00:05:15;;;;;;;90.22;36.15;;;;;;;;;;4959159;23;20114;-90
2022/03/26 00:07:43;;;;;;;99.97;36.70;;;;;;;;;;5003183;28;20055;-89
2022/03/26 00:10:11;;;;;;;102.68;38.42;;;;;;;;;;5005263;28;20040;-90
2022/03/26 00:12:40;;;;;;;103.45;36.67;;;;;;;;;;4997667;28;20065;-90
2022/03/26 00:15:08;;;;;;;103.47;35.97;;;;;;;;;;4988228;28;20045;-89
2022/03/26 00:17:35;;;;;;;101.75;37.53;;;;;;;;;;5005289;28;20041;-89
2022/03/26 00:20:04;;;;;;;100.55;37.85;;;;;;;;;;5001107;28;20041;-90
2022/03/26 00:22:32;;;;;;;103.13;37.15;;;;;;;;;;5008734;28;20667;-89
2022/03/26 00:24:59;;;;;;;93.20;35.10;;;;;;;;;;5013944;28;20136;-89
2022/03/26 00:27:27;;;;;;;99.28;36.80;;;;;;;;;;5006099;28;20037;-90
2022/03/26 00:29:55;;;;;;;100.22;36.72;;;;;;;;;;5019445;28;20041;-90
2022/03/26 00:32:24;;;;;;;100.75;37.58;;;;;;;;;;5014651;28;20534;-89
2022/03/26 00:34:54;;;;;;;99.78;37.50;;;;;;;;;;4982324;28;20089;-90
2022/03/26 00:37:25;;;;;;;103.57;36.90;;;;;;;;;;5015329;28;20037;-90
2022/03/26 00:39:53;;;;;;;105.03;39.08;;;;;;;;;;5018592;28;20032;-90
2022/03/26 00:42:21;;;;;;;91.85;33.90;;;;;;;;;;4997413;28;20390;-90
2022/03/26 00:44:49;;;;;;;104.72;35.45;;;;;;;;;;5003746;28;20037;-90
2022/03/26 00:47:17;;;;;;;102.70;37.13;;;;;;;;;;5021975;28;20970;-89
2022/03/26 00:49:45;;;;;;;103.78;37.60;;;;;;;;;;5002727;28;20056;-90
2022/03/26 00:52:13;;;;;;;104.18;35.42;;;;;;;;;;4997083;28;20033;-89
2022/03/26 00:54:43;;;;;;;95.68;37.40;;;;;;;;;;5008299;28;20037;-90
2022/03/26 00:57:11;;;;;;;100.30;35.90;;;;;;;;;;5032822;28;20037;-90
2022/03/26 00:59:39;;;;;;;102.82;36.38;;;;;;;;;;4984401;28;20120;-90
2022/03/26 01:02:07;;;;;;;93.90;34.10;;;;;;;;;;5019226;28;20128;-90
2022/03/26 01:04:39;;;;;;;107.50;37.13;;;;;;;;;;5018523;28;20034;-89
2022/03/26 01:07:07;;;;;;;97.82;35.50;;;;;;;;;;5003636;28;20701;-89
2022/03/26 01:09:35;;;;;;;102.68;37.78;;;;;;;;;;5004592;28;20041;-90
2022/03/26 01:12:04;;;;;;;110.15;38.20;;;;;;;;;;4999460;28;20042;-90
2022/03/26 01:14:31;;;;;;;104.55;37.70;;;;;;;;;;5019967;28;20098;-90
2022/03/26 01:17:01;;;;;;;107.38;35.92;;;;;;;;;;4996245;28;21084;-89
2022/03/26 01:19:29;;;;;;;106.18;38.45;;;;;;;;;;5003173;28;20049;-89
2022/03/26 01:21:57;;;;;;;108.03;36.63;;;;;;;;;;5022103;28;20068;-89
2022/03/26 01:24:26;;;;;;;98.07;35.85;;;;;;;;;;5017508;28;20045;-90
2022/03/26 01:26:54;;;;;;;98.45;37.03;;;;;;;;;;4983371;28;20133;-90
2022/03/26 01:29:25;;;;;;;101.15;36.85;;;;;;;;;;4990545;28;20132;-89
2022/03/26 01:31:53;;;;;;;104.07;37.08;;;;;;;;;;4986349;28;20049;-90
2022/03/26 01:34:26;;;;;;;102.25;36.63;;;;;;;;;;5015501;28;21715;-90
2022/03/26 01:36:53;;;;;;;99.50;35.70;;;;;;;;;;5006164;28;20128;-90
2022/03/26 01:39:23;;;;;;;101.57;36.70;;;;;;;;;;4998216;28;20582;-90
2022/03/26 01:41:51;;;;;;;104.65;34.95;;;;;;;;;;5012060;28;20041;-90
2022/03/26 01:44:19;;;;;;;94.43;33.95;;;;;;;;;;5016624;28;20042;-89
2022/03/26 01:46:51;;;;;;;98.28;35.47;;;;;;;;;;4984407;28;20068;-89
2022/03/26 01:49:20;;;;;;;107.40;36.05;;;;;;;;;;4979313;28;20075;-90
2022/03/26 01:51:48;;;;;;;104.10;34.38;;;;;;;;;;4997796;28;20471;-89
2022/03/26 01:54:16;;;;;;;94.63;36.30;;;;;;;;;;5018025;28;20041;-89
2022/03/26 01:56:43;;;;;;;93.07;34.45;;;;;;;;;;5019801;28;20068;-90
2022/03/26 01:59:11;;;;;;;94.65;33.97;;;;;;;;;;4997199;28;20077;-90
2022/03/26 02:01:38;;;;;;;97.68;34.70;;;;;;;;;;4976155;28;20079;-90
2022/03/26 02:04:08;;;;;;;96.88;35.75;;;;;;;;;;4998930;28;20034;-89
2022/03/26 02:06:38;;;;;;;104.03;37.78;;;;;;;;;;4980929;28;20045;-90
2022/03/26 02:09:09;;;;;;;100.32;35.05;;;;;;;;;;4980408;28;20045;-90
2022/03/26 02:11:38;;;;;;;99.78;35.25;;;;;;;;;;4996928;28;20412;-89
2022/03/26 02:14:09;;;;;;;98.70;36.08;;;;;;;;;;4975548;28;20045;-89
2022/03/26 02:16:39;;;;;;;101.88;35.67;;;;;;;;;;5015776;28;20042;-90
2022/03/26 02:19:08;;;;;;;93.15;34.35;;;;;;;;;;4985620;28;20111;-89
2022/03/26 02:21:37;;;;;;;102.28;35.53;;;;;;;;;;5026775;28;20041;-89
2022/03/26 02:24:06;;;;;;;118.07;38.30;;;;;;;;;;4993187;28;20042;-89
2022/03/26 02:26:35;;;;;;;103.75;37.00;;;;;;;;;;4988687;28;20056;-90
2022/03/26 02:29:08;;;;;;;89.20;35.58;;;;;;;;;;4982614;28;20049;-90
2022/03/26 02:31:37;;;;;;;113.93;38.60;;;;;;;;;;4987130;28;20057;-90
2022/03/26 02:34:06;;;;;;;114.80;37.05;;;;;;;;;;5001602;28;20040;-90
2022/03/26 02:36:34;;;;;;;97.85;38.05;;;;;;;;;;4987331;28;20034;-90
2022/03/26 02:39:04;;;;;;;104.50;36.33;;;;;;;;;;4985586;28;20501;-89
2022/03/26 02:41:34;;;;;;;115.22;39.30;;;;;;;;;;5013148;28;20034;-89
2022/03/26 02:44:03;;;;;;;102.28;36.25;;;;;;;;;;5003157;28;20160;-89
2022/03/26 02:46:30;;;;;;;106.47;37.90;;;;;;;;;;4993216;28;20038;-90
2022/03/26 02:48:58;;;;;;;100.13;35.95;;;;;;;;;;4996791;28;20050;-90
2022/03/26 02:51:26;;;;;;;106.38;37.92;;;;;;;;;;5012431;28;20045;-90
2022/03/26 02:53:54;;;;;;;96.97;36.42;;;;;;;;;;5009120;28;20037;-89
2022/03/26 02:56:22;;;;;;;99.18;36.35;;;;;;;;;;5002983;28;20045;-90
2022/03/26 02:58:50;;;;;;;91.35;33.65;;;;;;;;;;4984399;28;20045;-90
2022/03/26 03:01:19;;;;;;;107.05;35.28;;;;;;;;;;4984920;28;20111;-89
2022/03/26 03:03:48;;;;;;;101.82;35.85;;;;;;;;;;4983587;28;20071;-89
2022/03/26 03:06:16;;;;;;;107.22;35.70;;;;;;;;;;5018931;28;20461;-90
2022/03/26 03:08:44;;;;;;;101.25;37.00;;;;;;;;;;5025074;28;20048;-89
2022/03/26 03:11:12;;;;;;;106.07;34.75;;;;;;;;;;4990833;28;20069;-90
2022/03/26 03:13:40;;;;;;;94.93;34.10;;;;;;;;;;5005698;28;20053;-89
2022/03/26 03:16:08;;;;;;;106.05;35.35;;;;;;;;;;5020258;28;20065;-89
2022/03/26 03:18:36;;;;;;;105.20;36.22;;;;;;;;;;5000728;28;20569;-90
2022/03/26 03:21:08;;;;;;;106.55;34.67;;;;;;;;;;5015791;28;20054;-89
2022/03/26 03:23:36;;;;;;;98.90;34.83;;;;;;;;;;5028121;28;20100;-90
2022/03/26 03:26:11;;;;;;;97.00;35.35;;;;;;;;;;5000665;28;20055;-89
2022/03/26 03:28:38;;;;;;;97.25;34.95;;;;;;;;;;4983539;28;20057;-89
2022/03/26 03:31:06;;;;;;;92.97;33.65;;;;;;;;;;5006647;28;20045;-89
2022/03/26 03:33:35;;;;;;;93.03;31.77;;;;;;;;;;5000386;28;20049;-89
2022/03/26 03:36:03;;;;;;;97.78;32.72;;;;;;;;;;5005643;28;20056;-89
2022/03/26 03:38:30;;;;;;;86.95;32.58;;;;;;;;;;5003429;28;20459;-90
2022/03/26 03:40:58;;;;;;;97.75;34.83;;;;;;;;;;5003174;28;20049;-90
2022/03/26 03:43:26;;;;;;;95.00;31.80;;;;;;;;;;4985986;28;20038;-89
2022/03/26 03:45:54;;;;;;;98.20;33.35;;;;;;;;;;4985916;28;20369;-89
2022/03/26 03:48:22;;;;;;;97.25;32.65;;;;;;;;;;5005830;28;20084;-89
2022/03/26 03:50:50;;;;;;;96.53;32.65;;;;;;;;;;5003814;28;20045;-90
2022/03/26 03:53:18;;;;;;;89.60;34.40;;;;;;;;;;4982114;28;20820;-90
2022/03/26 03:55:46;;;;;;;102.82;34.55;;;;;;;;;;5015229;28;20037;-89
2022/03/26 03:58:14;;;;;;;90.53;33.40;;;;;;;;;;5006128;28;20052;-89
2022/03/26 04:00:42;;;;;;;90.70;34.00;;;;;;;;;;5004786;28;20053;-90
2022/03/26 04:03:10;;;;;;;94.70;30.55;;;;;;;;;;4983389;28;20054;-89
2022/03/26 04:05:39;;;;;;;92.45;32.95;;;;;;;;;;5019062;28;20037;-89
2022/03/26 04:08:06;;;;;;;92.97;31.65;;;;;;;;;;4986970;28;20140;-89
2022/03/26 04:10:34;;;;;;;94.13;34.67;;;;;;;;;;4981270;28;20050;-89
2022/03/26 04:13:02;;;;;;;86.40;33.60;;;;;;;;;;4980695;28;20156;-89
2022/03/26 04:15:30;;;;;;;100.90;35.10;;;;;;;;;;4999995;28;20054;-89
2022/03/26 04:17:58;;;;;;;96.30;33.65;;;;;;;;;;5017103;28;20126;-89
2022/03/26 04:20:26;;;;;;;98.25;34.33;;;;;;;;;;4999761;28;20033;-90
2022/03/26 04:22:54;;;;;;;102.28;33.92;;;;;;;;;;4972558;28;20132;-90
2022/03/26 04:25:22;;;;;;;86.63;33.05;;;;;;;;;;5016512;28;20056;-89
2022/03/26 04:27:50;;;;;;;93.20;33.40;;;;;;;;;;4999729;28;20562;-89
2022/03/26 04:30:20;;;;;;;94.97;33.40;;;;;;;;;;5014811;28;20370;-90
2022/03/26 04:32:49;;;;;;;93.60;33.25;;;;;;;;;;4993576;28;20088;-90
2022/03/26 04:35:17;;;;;;;98.22;34.63;;;;;;;;;;5002854;28;20087;-89
2022/03/26 04:37:44;;;;;;;97.82;35.45;;;;;;;;;;4973668;28;20041;-90
2022/03/26 04:40:14;;;;;;;98.60;34.50;;;;;;;;;;5030338;28;20103;-90
2022/03/26 04:42:42;;;;;;;104.22;35.50;;;;;;;;;;4966332;28;20064;-89
2022/03/26 04:45:10;;;;;;;107.03;32.67;;;;;;;;;;4992561;28;20522;-89
2022/03/26 04:47:39;;;;;;;95.38;34.17;;;;;;;;;;4997562;28;20566;-90
2022/03/26 04:50:07;;;;;;;103.18;35.90;;;;;;;;;;4998192;28;20051;-89
2022/03/26 04:52:34;;;;;;;99.43;34.65;;;;;;;;;;5015946;28;20077;-89
2022/03/26 04:55:04;;;;;;;98.22;33.35;;;;;;;;;;4982043;28;20054;-90
2022/03/26 04:57:41;;;;;;;101.50;34.65;;;;;;;;;;5006109;28;20096;-89
2022/03/26 05:00:13;;;;;;;91.22;32.90;;;;;;;;;;4999344;28;20052;-89
2022/03/26 05:02:41;;;;;;;97.15;34.25;;;;;;;;;;4991856;28;20401;-90
2022/03/26 05:05:10;;;;;;;96.32;34.97;;;;;;;;;;5013465;28;20033;-89
2022/03/26 05:07:48;;;;;;;102.13;34.35;;;;;;;;;;5009057;28;20661;-89
2022/03/26 05:10:19;;;;;;;94.53;33.80;;;;;;;;;;5000023;28;20945;-89
2022/03/26 05:12:47;;;;;;;88.88;34.35;;;;;;;;;;4997479;28;20046;-90
2022/03/26 05:15:16;;;;;;;101.38;35.80;;;;;;;;;;5013783;28;20041;-89
2022/03/26 05:17:44;;;;;;;103.57;34.63;;;;;;;;;;5000791;28;20689;-90
2022/03/26 05:20:12;;;;;;;108.05;36.25;;;;;;;;;;5015825;28;20124;-89
2022/03/26 05:22:42;;;;;;;103.95;37.67;;;;;;;;;;4982694;28;20555;-90
2022/03/26 05:25:13;;;;;;;97.35;34.35;;;;;;;;;;5015505;28;20064;-90
2022/03/26 05:27:47;;;;;;;97.93;33.17;;;;;;;;;;4993346;28;20393;-90
2022/03/26 05:30:15;;;;;;;103.18;34.47;;;;;;;;;;5009892;28;20508;-90
2022/03/26 05:32:43;;;;;;;104.45;36.17;;;;;;;;;;4996342;28;20053;-90
2022/03/26 05:35:13;;;;;;;104.53;36.47;;;;;;;;;;5000114;28;20079;-89
2022/03/26 05:37:41;;;;;;;99.30;35.40;;;;;;;;;;5010766;28;20033;-89
2022/03/26 05:40:16;;;;;;;96.53;36.53;;;;;;;;;;4977369;28;20049;-90
2022/03/26 05:42:46;;;;;;;114.07;37.97;;;;;;;;;;5006143;28;20117;-90
2022/03/26 05:45:15;;;;;;;105.75;37.28;;;;;;;;;;4999893;28;20038;-90
2022/03/26 05:47:42;;;;;;;104.88;36.40;;;;;;;;;;4981997;28;20045;-89
2022/03/26 05:50:12;;;;;;;116.95;39.50;;;;;;;;;;4992145;28;20132;-90
2022/03/26 05:52:41;;;;;;;105.40;36.30;;;;;;;;;;5009771;28;20096;-90
2022/03/26 05:55:09;;;;;;;98.78;35.33;;;;;;;;;;4979928;28;20463;-89
2022/03/26 05:57:36;;;;;;;106.00;37.17;;;;;;;;;;4991354;28;20109;-89
2022/03/26 06:00:06;;;;;;;113.57;37.95;;;;;;;;;;4996820;28;20045;-89
2022/03/26 06:02:34;;;;;;;110.40;38.63;;;;;;;;;;5020702;28;20045;-90
2022/03/26 06:05:03;;;;;;;112.32;39.05;;;;;;;;;;5017740;28;20045;-89
2022/03/26 06:07:31;;;;;;;114.40;38.55;;;;;;;;;;4983115;28;20052;-89
2022/03/26 06:09:58;;;;;;;110.70;37.22;;;;;;;;;;4994818;28;20050;-90
2022/03/26 06:12:26;;;;;;;113.32;38.22;;;;;;;;;;4994936;28;20053;-89
2022/03/26 06:14:55;;;;;;;111.07;36.25;;;;;;;;;;5003651;28;20038;-90
2022/03/26 06:17:23;;;;;;;106.60;38.63;;;;;;;;;;5040583;28;20029;-89
2022/03/26 06:19:50;;;;;;;116.32;37.33;;;;;;;;;;5025019;28;20069;-89
2022/03/26 06:22:18;;;;;;;106.40;37.35;;;;;;;;;;5021546;28;20054;-89
2022/03/26 06:24:46;;;;;;;119.45;38.88;;;;;;;;;;4992704;28;20045;-90
2022/03/26 06:27:15;;;;;;;120.72;39.10;;;;;;;;;;4999838;28;20060;-90
2022/03/26 06:29:42;;;;;;;107.00;38.15;;;;;;;;;;5015012;28;20132;-90
2022/03/26 06:32:10;;;;;;;112.05;39.55;;;;;;;;;;5001196;28;20050;-90
2022/03/26 06:34:38;;;;;;;107.93;35.80;;;;;;;;;;4996812;28;20065;-90
2022/03/26 06:37:06;;;;;;;119.65;38.38;;;;;;;;;;4996140;28;20049;-90
2022/03/26 06:39:34;;;;;;;107.30;38.65;;;;;;;;;;5010971;28;20045;-90
2022/03/26 06:42:02;;;;;;;106.72;35.65;;;;;;;;;;4975478;28;20109;-90
2022/03/26 06:44:30;;;;;;;99.60;35.85;;;;;;;;;;4998859;28;20108;-89
2022/03/26 06:46:58;;;;;;;113.32;36.28;;;;;;;;;;5018244;28;20038;-90
2022/03/26 06:49:30;;;;;;;101.75;37.65;;;;;;;;;;4993035;28;20048;-90
2022/03/26 06:51:59;;;;;;;108.20;37.15;;;;;;;;;;4995903;28;20048;-90
2022/03/26 06:54:27;;;;;;;105.72;36.10;;;;;;;;;;5016203;28;20069;-89
2022/03/26 06:56:54;;;;;;;106.20;36.63;;;;;;;;;;5003413;28;20057;-90
2022/03/26 06:59:25;;;;;;;98.15;35.10;;;;;;;;;;4982679;28;20057;-90
2022/03/26 07:01:52;;;;;;;106.15;35.72;;;;;;;;;;5015661;28;20049;-89
2022/03/26 07:04:23;;;;;;;103.57;36.00;;;;;;;;;;4988334;28;20045;-89
2022/03/26 07:06:50;;;;;;;92.63;34.95;;;;;;;;;;5024416;28;20037;-90
2022/03/26 07:09:19;;;;;;;98.90;32.55;;;;;;;;;;4994245;28;20405;-90
2022/03/26 07:11:49;;;;;;;89.97;32.20;;;;;;;;;;5006319;28;20509;-90
2022/03/26 07:14:18;;;;;;;93.10;33.22;;;;;;;;;;4994718;28;20042;-90
2022/03/26 07:16:46;;;;;;;90.70;33.85;;;;;;;;;;5001621;28;20084;-90
2022/03/26 07:19:14;;;;;;;91.75;34.75;;;;;;;;;;5032179;28;20053;-90
2022/03/26 07:21:44;;;;;;;91.13;32.38;;;;;;;;;;5030605;28;20022;-90
2022/03/26 07:24:13;;;;;;;77.78;30.48;;;;;;;;;;4993070;28;20042;-90
2022/03/26 07:26:43;;;;;;;91.97;30.83;;;;;;;;;;4986062;28;20060;-90
2022/03/26 07:29:13;;;;;;;79.25;29.83;;;;;;;;;;5002768;28;20073;-90
2022/03/26 07:31:47;;;;;;;81.93;29.92;;;;;;;;;;4992363;28;20049;-90
2022/03/26 07:34:17;;;;;;;85.13;30.02;;;;;;;;;;5026692;28;20087;-90
2022/03/26 07:36:46;;;;;;;81.95;32.53;;;;;;;;;;5019071;28;20046;-90
2022/03/26 07:39:15;;;;;;;83.93;29.92;;;;;;;;;;4990492;28;20790;-90
2022/03/26 07:41:42;;;;;;;82.72;30.25;;;;;;;;;;4981735;28;20140;-90
2022/03/26 07:44:10;;;;;;;65.63;27.88;;;;;;;;;;5011019;28;20052;-90
2022/03/26 07:46:52;;;;;;;69.63;26.67;;;;;;;;;;4984051;28;20050;-90
2022/03/26 07:49:20;;;;;;;71.57;27.55;;;;;;;;;;4993268;28;20390;-90
2022/03/26 07:51:48;;;;;;;58.85;22.90;;;;;;;;;;5005207;28;20051;-90
2022/03/26 07:54:16;;;;;;;67.13;25.13;;;;;;;;;;4977701;28;20057;-90
2022/03/26 07:56:45;;;;;;;61.30;22.95;;;;;;;;;;5020678;28;20045;-90
2022/03/26 07:59:12;;;;;;;63.08;22.88;;;;;;;;;;5037431;28;20033;-90
2022/03/26 08:01:41;;;;;;;62.85;23.98;;;;;;;;;;5051963;28;20025;-89
2022/03/26 08:04:08;;;;;;;55.50;23.30;;;;;;;;;;5037429;28;20041;-90
2022/03/26 08:06:36;;;;;;;50.92;21.60;;;;;;;;;;5013366;28;20033;-91
2022/03/26 08:09:05;;;;;;;56.00;22.58;;;;;;;;;;4998480;28;20057;-90
2022/03/26 08:11:32;;;;;;;49.95;21.10;;;;;;;;;;4994890;28;20050;-91
2022/03/26 08:14:00;;;;;;;53.47;20.13;;;;;;;;;;5015224;28;20053;-90
2022/03/26 08:16:28;;;;;;;49.13;21.30;;;;;;;;;;4989486;28;20523;-90
2022/03/26 08:18:56;;;;;;;48.28;20.33;;;;;;;;;;5032424;28;20042;-91
2022/03/26 08:21:24;;;;;;;45.90;19.48;;;;;;;;;;5002598;28;20046;-91
2022/03/26 08:23:54;;;;;;;44.67;18.35;;;;;;;;;;4999791;28;20045;-91
2022/03/26 08:26:23;;;;;;;44.95;16.63;;;;;;;;;;5001562;28;20524;-91
2022/03/26 08:28:51;;;;;;;48.28;19.63;;;;;;;;;;5009279;28;20042;-90
2022/03/26 08:31:22;;;;;;;45.90;19.00;;;;;;;;;;5010701;28;20049;-90
2022/03/26 08:33:51;;;;;;;42.15;18.55;;;;;;;;;;4975405;28;20054;-90
2022/03/26 08:36:18;;;;;;;41.45;18.63;;;;;;;;;;4990075;28;20045;-90
2022/03/26 08:38:47;;;;;;;44.13;17.48;;;;;;;;;;5029022;28;20041;-90
2022/03/26 08:41:16;;;;;;;38.67;15.88;;;;;;;;;;5013236;28;20045;-90
2022/03/26 08:43:44;;;;;;;44.55;16.02;;;;;;;;;;4999269;28;20878;-90
2022/03/26 08:46:12;;;;;;;36.85;17.15;;;;;;;;;;4999403;28;20049;-90
2022/03/26 08:48:40;;;;;;;42.35;17.17;;;;;;;;;;5000883;28;20045;-91
2022/03/26 08:51:08;;;;;;;41.35;15.90;;;;;;;;;;4977560;28;20048;-91
2022/03/26 08:53:36;;;;;;;38.97;16.42;;;;;;;;;;4999909;28;20115;-90
2022/03/26 08:56:06;;;;;;;39.30;15.18;;;;;;;;;;4995993;28;20049;-90
2022/03/26 08:58:36;;;;;;;35.03;14.27;;;;;;;;;;5013042;28;20037;-90
2022/03/26 09:01:07;;;;;;;32.42;14.13;;;;;;;;;;5015469;28;20064;-90
2022/03/26 09:03:37;;;;;;;32.83;14.50;;;;;;;;;;4973482;28;20053;-90
2022/03/26 09:06:07;;;;;;;33.10;13.73;;;;;;;;;;4985520;28;20060;-91
2022/03/26 09:08:47;;;;;;;33.45;15.48;;;;;;;;;;5016565;28;20251;-91
2022/03/26 09:11:14;;;;;;;32.10;14.55;;;;;;;;;;5012841;28;20056;-91
2022/03/26 09:14:10;;;;;;;32.40;15.27;;;;;;;;;;4984391;28;20068;-91
2022/03/26 09:18:02;;;;;;;31.40;14.30;;;;;;;;;;4963260;28;20047;-91
2022/03/26 09:20:31;;;;;;;32.33;14.07;;;;;;;;;;4961529;28;20057;-91
2022/03/26 09:22:59;;;;;;;24.95;12.27;;;;;;;;;;4958594;28;20411;-91
2022/03/26 09:25:38;;;;;;;29.75;15.13;;;;;;;;;;4961403;28;20047;-91
2022/03/26 09:28:07;;;;;;;31.95;14.02;;;;;;;;;;4953176;28;20811;-91
2022/03/26 09:30:37;;;;;;;30.75;13.95;;;;;;;;;;4961320;28;20051;-92
2022/03/26 09:33:13;;;;;;;30.48;12.38;;;;;;;;;;4974074;28;20046;-91
2022/03/26 09:35:40;;;;;;;29.52;12.73;;;;;;;;;;4960201;28;20186;-92
2022/03/26 09:38:14;;;;;;;24.38;11.95;;;;;;;;;;4961003;28;20050;-92
2022/03/26 09:40:45;;;;;;;24.25;10.73;;;;;;;;;;4959487;28;20050;-91
2022/03/26 09:50:46;;;;;;;20.25;8.57;;;;;;;;;;5002296;28;20069;-85
2022/03/26 09:53:15;;;;;;;16.45;8.05;;;;;;;;;;4985659;28;20065;-81
2022/03/26 09:55:43;;;;;;;17.85;8.35;;;;;;;;;;4981363;28;20057;-82
2022/03/26 09:58:12;;;;;;;20.35;8.77;;;;;;;;;;5005010;28;20038;-84
2022/03/26 10:00:40;;;;;;;17.08;7.18;;;;;;;;;;5000454;28;20479;-81
2022/03/26 10:03:08;;;;;;;16.52;6.55;;;;;;;;;;5013967;28;20104;-84
2022/03/26 10:05:36;;;;;;;13.90;6.53;;;;;;;;;;5009418;28;20046;-82
2022/03/26 10:08:15;;;;;;;12.38;6.30;;;;;;;;;;5021671;28;20034;-82
2022/03/26 10:10:51;;;;;;;16.00;7.28;;;;;;;;;;5001401;28;20061;-83
2022/03/26 10:13:43;;;;;;;14.43;6.57;;;;;;;;;;4979258;28;20038;-82
2022/03/26 10:16:13;;;;;;;14.07;7.20;;;;;;;;;;5012877;28;20546;-82
2022/03/26 10:18:48;;;;;;;13.52;6.82;;;;;;;;;;5004867;28;20099;-83
2022/03/26 10:21:30;;;;;;;16.63;7.30;;;;;;;;;;4982260;28;20123;-83
2022/03/26 10:23:58;;;;;;;14.05;6.88;;;;;;;;;;5011912;28;20076;-84
2022/03/26 10:26:26;;;;;;;12.18;6.50;;;;;;;;;;5012948;28;20115;-83
2022/03/26 10:28:57;;;;;;;17.38;6.50;;;;;;;;;;5004696;28;20068;-81
2022/03/26 10:34:38;;;;;;;14.82;7.18;;;;;;;;;;5016061;28;20410;-81
2022/03/26 10:37:06;;;;;;;11.15;7.03;;;;;;;;;;4996369;28;20046;-83
2022/03/26 10:39:36;;;;;;;16.77;7.68;;;;;;;;;;5008475;28;20459;-82
2022/03/26 10:42:12;;;;;;;15.38;7.20;;;;;;;;;;5007491;28;20157;-82
2022/03/26 10:44:41;;;;;;;14.40;7.25;;;;;;;;;;5021449;28;20316;-82
2022/03/26 10:47:15;;;;;;;12.25;7.00;;;;;;;;;;5020028;28;20077;-83
2022/03/26 10:49:46;;;;;;;15.63;6.90;;;;;;;;;;5016135;28;20068;-82
2022/03/26 10:52:17;;;;;;;17.52;6.97;;;;;;;;;;4999459;28;20100;-82
2022/03/26 10:54:47;;;;;;;13.43;6.05;;;;;;;;;;5008485;28;20030;-81
2022/03/26 10:57:21;;;;;;;12.27;5.78;;;;;;;;;;5017776;28;20056;-83
2022/03/26 10:59:51;;;;;;;13.48;6.53;;;;;;;;;;4995306;28;20141;-81
2022/03/26 11:02:32;;;;;;;13.18;6.68;;;;;;;;;;5014978;28;20048;-83
2022/03/26 11:05:00;;;;;;;15.38;7.03;;;;;;;;;;4998199;28;20053;-83
2022/03/26 11:07:30;;;;;;;13.43;6.75;;;;;;;;;;5014625;28;20392;-84
2022/03/26 11:09:59;;;;;;;12.30;7.15;;;;;;;;;;5015383;28;20044;-82
2022/03/26 11:12:50;;;;;;;13.57;6.47;;;;;;;;;;5013974;28;20042;-83
2022/03/26 11:15:40;;;;;;;11.10;6.55;;;;;;;;;;5008843;28;20049;-81
2022/03/26 11:18:37;;;;;;;12.95;6.63;;;;;;;;;;4987740;28;20390;-83
2022/03/26 11:21:49;;;;;;;12.50;6.70;;;;;;;;;;5013119;28;20438;-83
2022/03/26 11:24:41;;;;;;;13.35;6.18;;;;;;;;;;5002093;28;20030;-84
2022/03/26 11:27:27;;;;;;;11.93;6.55;;;;;;;;;;5008921;28;20570;-85
2022/03/26 11:30:17;;;;;;;15.43;6.30;;;;;;;;;;5002573;28;20042;-82
2022/03/26 11:33:12;;;;;;;13.80;6.30;;;;;;;;;;5006086;28;21749;-84
2022/03/26 11:36:08;;;;;;;15.88;7.03;;;;;;;;;;5005844;28;20068;-83
2022/03/26 11:38:37;;;;;;;13.00;6.40;;;;;;;;;;5007760;28;20128;-83
2022/03/26 11:41:07;;;;;;;15.05;7.15;;;;;;;;;;4999749;28;20034;-83
2022/03/26 11:43:45;;;;;;;13.77;7.93;;;;;;;;;;5009908;28;20073;-82
2022/03/26 11:52:23;;;;;;;15.13;8.15;;;;;;;;;;4976417;28;20057;-82
2022/03/26 11:55:10;;;;;;;14.95;8.50;;;;;;;;;;4975225;28;20117;-83
2022/03/26 11:58:24;;;;;;;15.25;8.40;;;;;;;;;;5012054;28;20088;-83
2022/03/26 12:01:15;;;;;;;16.65;7.85;;;;;;;;;;5011675;28;20042;-84
2022/03/26 12:03:43;;;;;;;17.88;8.40;;;;;;;;;;4994155;28;20053;-83
2022/03/26 12:09:35;;;;;;;15.60;8.18;;;;;;;;;;5010131;28;20053;-83
2022/03/26 12:12:05;;;;;;;18.25;8.48;;;;;;;;;;5007887;28;20054;-84
2022/03/26 12:15:12;;;;;;;18.00;8.73;;;;;;;;;;5000167;28;20046;-84
2022/03/26 12:18:14;;;;;;;14.75;8.60;;;;;;;;;;4949218;28;20054;-81
2022/03/26 12:20:48;;;;;;;13.80;7.82;;;;;;;;;;4950383;28;20374;-83
2022/03/26 12:23:28;;;;;;;11.93;7.10;;;;;;;;;;4969740;28;20090;-83
2022/03/26 12:26:04;;;;;;;18.02;8.57;;;;;;;;;;4948297;28;20039;-83
2022/03/26 12:28:32;;;;;;;13.43;7.93;;;;;;;;;;4971254;28;20501;-83
2022/03/26 12:31:04;;;;;;;15.98;7.95;;;;;;;;;;4964834;28;20038;-82
2022/03/26 12:33:49;;;;;;;13.68;7.60;;;;;;;;;;4946876;28;20091;-84
2022/03/26 12:36:18;;;;;;;16.25;8.20;;;;;;;;;;4945755;28;20042;-82
2022/03/26 12:38:51;;;;;;;15.25;7.82;;;;;;;;;;4968607;28;20054;-82
2022/03/26 12:41:19;;;;;;;11.73;7.22;;;;;;;;;;4968162;28;20065;-83
2022/03/26 12:43:57;;;;;;;13.43;7.40;;;;;;;;;;4970788;28;20047;-84
2022/03/26 12:46:34;;;;;;;16.25;6.78;;;;;;;;;;4970067;28;20058;-82
2022/03/26 12:49:20;;;;;;;14.52;7.47;;;;;;;;;;4970462;28;20566;-83
2022/03/26 12:51:57;;;;;;;13.00;6.18;;;;;;;;;;4968150;28;20055;-82
2022/03/26 12:54:38;;;;;;;12.00;6.13;;;;;;;;;;5010813;28;20052;-84
2022/03/26 12:57:07;;;;;;;10.35;5.75;;;;;;;;;;5000765;28;20044;-82
2022/03/26 12:59:56;;;;;;;14.07;6.80;;;;;;;;;;5006742;28;20037;-82
2022/03/26 13:02:24;;;;;;;14.05;5.82;;;;;;;;;;5010815;28;20049;-82
2022/03/26 13:04:53;;;;;;;12.68;6.22;;;;;;;;;;5000325;28;20463;-84
2022/03/26 13:07:37;;;;;;;12.70;7.60;;;;;;;;;;4961373;28;20401;-85
2022/03/26 13:10:31;;;;;;;11.57;6.57;;;;;;;;;;5007401;28;20038;-82
2022/03/26 13:12:59;;;;;;;9.32;4.72;;;;;;;;;;4992178;28;20064;-83
2022/03/26 13:15:26;;;;;;;7.47;4.13;;;;;;;;;;5010588;28;20038;-82
2022/03/26 13:18:01;;;;;;;8.80;4.03;;;;;;;;;;5004595;28;20038;-84
2022/03/26 13:20:40;;;;;;;13.05;4.78;;;;;;;;;;4996376;28;20044;-86
2022/03/26 13:23:14;;;;;;;6.05;4.05;;;;;;;;;;5008039;28;20018;-84
2022/03/26 13:25:42;;;;;;;18.20;5.72;;;;;;;;;;5008044;28;20045;-83
2022/03/26 13:28:22;;;;;;;10.77;5.32;;;;;;;;;;4995003;28;20057;-84
2022/03/26 13:31:20;;;;;;;11.80;5.65;;;;;;;;;;5007875;28;20073;-84
2022/03/26 13:34:10;;;;;;;7.90;5.35;;;;;;;;;;5000217;28;20041;-85
2022/03/26 13:36:38;;;;;;;8.10;4.55;;;;;;;;;;5008623;28;20042;-84
2022/03/26 13:39:24;;;;;;;9.65;5.18;;;;;;;;;;5012165;28;20053;-83
2022/03/26 13:41:54;;;;;;;11.48;4.50;;;;;;;;;;4991437;28;20046;-82
2022/03/26 13:44:26;;;;;;;10.18;4.63;;;;;;;;;;5009699;28;20141;-84
2022/03/26 13:46:54;;;;;;;11.68;5.88;;;;;;;;;;4995948;28;20542;-82
2022/03/26 13:49:28;;;;;;;11.63;5.18;;;;;;;;;;5008728;28;20041;-82
2022/03/26 13:51:58;;;;;;;11.35;4.97;;;;;;;;;;4977455;28;20046;-83
2022/03/26 13:54:49;;;;;;;9.18;5.00;;;;;;;;;;5021674;28;20053;-84
2022/03/26 13:57:35;;;;;;;12.73;4.80;;;;;;;;;;4997539;28;20058;-86
2022/03/26 14:00:17;;;;;;;13.07;5.50;;;;;;;;;;4995493;28;20050;-82
2022/03/26 14:02:51;;;;;;;9.57;4.63;;;;;;;;;;5013657;28;20550;-85
2022/03/26 14:05:32;;;;;;;10.55;4.80;;;;;;;;;;4974129;28;20050;-84
2022/03/26 14:08:57;;;;;;;10.95;5.15;;;;;;;;;;4999009;28;20076;-85
2022/03/26 14:11:48;;;;;;;11.50;4.90;;;;;;;;;;5007307;28;20665;-83
2022/03/26 14:14:29;;;;;;;10.57;4.47;;;;;;;;;;5012475;28;20049;-83
2022/03/26 14:17:13;;;;;;;8.02;4.65;;;;;;;;;;5003258;28;20133;-81
2022/03/26 14:19:54;;;;;;;13.70;6.72;;;;;;;;;;4996466;28;20068;-81
2022/03/26 14:22:30;;;;;;;13.07;5.35;;;;;;;;;;5012939;28;20049;-81
2022/03/26 14:24:58;;;;;;;9.63;5.70;;;;;;;;;;5009165;28;20088;-81
2022/03/26 14:27:26;;;;;;;10.38;4.82;;;;;;;;;;5010730;28;20143;-81
2022/03/26 14:30:03;;;;;;;11.95;5.85;;;;;;;;;;5010311;28;20042;-83
2022/03/26 14:32:44;;;;;;;9.80;4.55;;;;;;;;;;4977869;28;20551;-82
2022/03/26 14:35:12;;;;;;;7.65;4.07;;;;;;;;;;5009360;28;20041;-82
2022/03/26 14:37:40;;;;;;;11.15;4.55;;;;;;;;;;5007478;28;20471;-81
2022/03/26 14:40:57;;;;;;;10.27;5.43;;;;;;;;;;5006032;28;20045;-82
2022/03/26 14:43:54;;;;;;;10.20;4.45;;;;;;;;;;4992849;28;20042;-81
2022/03/26 14:46:25;;;;;;;7.88;4.07;;;;;;;;;;5008427;28;20052;-81
2022/03/26 14:49:06;;;;;;;12.30;4.72;;;;;;;;;;4982817;28;20375;-81
2022/03/26 14:51:37;;;;;;;9.48;5.30;;;;;;;;;;4994972;28;20046;-81
2022/03/26 14:54:06;;;;;;;11.18;5.00;;;;;;;;;;5006290;28;20034;-81
2022/03/26 14:57:03;;;;;;;10.85;4.03;;;;;;;;;;5002473;28;20050;-82
2022/03/26 14:59:46;;;;;;;8.95;4.32;;;;;;;;;;4984992;28;20081;-80
2022/03/26 15:02:15;;;;;;;10.75;4.35;;;;;;;;;;5017125;28;20373;-81
2022/03/26 15:04:42;;;;;;;11.00;4.05;;;;;;;;;;5011937;28;20042;-82
2022/03/26 15:07:14;;;;;;;10.75;4.85;;;;;;;;;;4988640;28;20048;-82